El Tehuelche Airport


Codes: SAVY/PMY
Name: El Tehuelche Airport
City: Puerto Madryn
Country: Argentina
Elevation: 427 ft.

Photos at El Tehuelche Airport


   Photos courtesy of SpottingLog. You can add your own sightings and photos by signing up for a free trial today.



No photos found.

Weather at El Tehuelche Airport


Time (UTC)DescriptionTempratureWindCloud coverageVisibilityPressureHumidity
18-Apr-2024 00:00Clear Sky16°C9 mph, S2%10000m1014hPa47%
18-Apr-2024 03:00Clear Sky14°C2 mph, SW2%10000m1014hPa54%
18-Apr-2024 06:00Clear Sky12°C9 mph, N3%10000m1014hPa59%
18-Apr-2024 09:00Scattered Clouds11°C13 mph, N29%10000m1012hPa66%
18-Apr-2024 12:00Broken Clouds13°C18 mph, N51%10000m1009hPa68%
18-Apr-2024 15:00Overcast Clouds17°C20 mph, N98%10000m1005hPa45%
18-Apr-2024 18:00Overcast Clouds25°C20 mph, N99%10000m1000hPa29%
18-Apr-2024 21:00Overcast Clouds22°C22 mph, N100%10000m999hPa38%
19-Apr-2024 00:00Overcast Clouds21°C25 mph, NW100%10000m999hPa41%
19-Apr-2024 03:00Overcast Clouds20°C20 mph, NW100%10000m1000hPa46%
19-Apr-2024 06:00Overcast Clouds18°C25 mph, NW100%10000m1000hPa40%
19-Apr-2024 09:00Overcast Clouds16°C20 mph, NW100%10000m1001hPa37%
19-Apr-2024 12:00Overcast Clouds15°C18 mph, NW88%10000m1002hPa39%
19-Apr-2024 15:00Clear Sky18°C25 mph, W5%10000m1003hPa30%
19-Apr-2024 18:00Clear Sky19°C29 mph, W3%10000m1002hPa25%
19-Apr-2024 21:00Few Clouds18°C20 mph, W22%10000m1003hPa28%
20-Apr-2024 00:00Scattered Clouds15°C18 mph, SW27%10000m1006hPa36%
20-Apr-2024 03:00Clear Sky14°C25 mph, W1%10000m1008hPa42%
20-Apr-2024 06:00Clear Sky12°C16 mph, W0%10000m1010hPa47%
20-Apr-2024 09:00Clear Sky11°C18 mph, W1%10000m1011hPa49%
20-Apr-2024 12:00Clear Sky11°C22 mph, SW2%10000m1013hPa47%
20-Apr-2024 15:00Few Clouds14°C25 mph, SW16%10000m1013hPa37%
20-Apr-2024 18:00Scattered Clouds15°C20 mph, SW32%10000m1013hPa32%
20-Apr-2024 21:00Broken Clouds15°C16 mph, SW83%10000m1013hPa33%
21-Apr-2024 00:00Scattered Clouds13°C11 mph, SW45%10000m1015hPa40%
21-Apr-2024 03:00Broken Clouds11°C11 mph, SE52%10000m1017hPa68%
21-Apr-2024 06:00Broken Clouds9°C9 mph, S75%10000m1019hPa75%
21-Apr-2024 09:00Overcast Clouds8°C11 mph, S95%10000m1020hPa74%
21-Apr-2024 12:00Broken Clouds7°C11 mph, SW52%10000m1023hPa68%
21-Apr-2024 15:00Few Clouds10°C9 mph, S24%10000m1024hPa49%
21-Apr-2024 18:00Broken Clouds11°C7 mph, S59%10000m1022hPa38%
21-Apr-2024 21:00Overcast Clouds11°C9 mph, SE100%10000m1022hPa43%
22-Apr-2024 00:00Overcast Clouds9°C9 mph, E100%10000m1023hPa54%
22-Apr-2024 03:00Overcast Clouds9°C9 mph, NE100%10000m1022hPa57%
22-Apr-2024 06:00Overcast Clouds9°C11 mph, N100%10000m1021hPa60%
22-Apr-2024 09:00Overcast Clouds9°C13 mph, N100%10000m1018hPa62%
22-Apr-2024 12:00Overcast Clouds8°C16 mph, N94%10000m1017hPa73%
22-Apr-2024 15:00Scattered Clouds12°C16 mph, NW30%10000m1014hPa54%
22-Apr-2024 18:00Few Clouds15°C11 mph, W21%10000m1011hPa39%
22-Apr-2024 21:00Clear Sky15°C9 mph, SW2%10000m1011hPa33%